New Johnsonville, TN (37134)

9:07 AM CDT on July 23, 2016 (GMT -0500)
River Oaks Drive | | Change Station
Active Advisory: Heat Advisory

Elev 433 ft 36.01 °N, 87.97 °W | Updated 7 minutes ago

Clear
Clear
78.6 °F
Feels Like 82 °F
N
0.0
Wind Variable Wind from WNW

Today
High -- | Low -- °F
--% Chance of Precip.
Yesterday
High -- | Low -- °F
Precip. -- in
Pressure 30.02 in
Visibility 10.0 miles
Clouds Clear
Heat Index 82 °F
Dew Point 77 °F
Humidity 93%
Rainfall 0.00 in
Snow Depth Not available.
5:52 AM 8:03 PM
Waning Gibbous, 85% visible
METAR KCEY 231355Z AUTO 18003KT 10SM CLR 27/24 A3002 RMK AO1
Pressure 30.02 in
Visibility 10.0 miles
Clouds Clear
Heat Index 82 °F
Dew Point 77 °F
Humidity 93%
Rainfall 0.00 in
Snow Depth Not available.
5:52 AM 8:03 PM
Waning Gibbous, 85% visible
METAR KCEY 231355Z AUTO 18003KT 10SM CLR 27/24 A3002 RMK AO1

10-Day Weather Forecast

Almanac

Astronomy

Jul. 23, 2016 Rise Set
Actual Time
Civil Twilight
Nautical Twilight
Astronomical Twilight
Moon
Length of Visible Light
Length of Day
Tomorrow will be .
, % of the Moon is Illuminated

Today's Extremes

State Highs State Lows

Community

WunderPhotos

Upload Photos

1,926,821 photos uploaded!

WunderBlog® & News

Nearby

Air Quality

  Air Quality AQ Index Pollutant
Not available.

Snow Depth

Station Depth Elevation

Earthquake Activity

City Distance Mag. Time & Date
Minimum magnitude displayed is 2.5.

Coastal Water Temperatures

Place Temperature

Stations

Nearby Weather Stations

Station Location Temp. Windchill Dew Point Humidity Wind Precip. Elev Updated Type
                   

Watches & Warnings

Heat Advisory
Issued: 2:13 AM CDT Jul. 23, 2016 – National Weather Service

... Heat advisory remains in effect until 8 PM CDT this evening...

* heat index values... around 105 during the afternoon.

* Impacts... prolonged exposure outside may cause heat related
illnesses such as heat exhaustion or heat stroke. Overnight
low temperatures will provide little relief from the heat.

Precautionary/preparedness actions...

A heat advisory means that a period of hot temperatures is
expected. The combination of hot temperatures and high humidity
will combine to create a situation in which heat illnesses are
possible. Drink plenty of fluids... stay in an air-conditioned
room... stay out of the sun... and check up on relatives and
neighbors.

Take extra precautions... if you work or spend time outside. When
possible... reschedule strenuous activities to early morning or
evening. Know the signs and symptoms of heat exhaustion and heat
stroke. Wear light weight and loose fitting clothing when
possible and drink plenty of water.